Time;durP1;ratioP1;P1;durP2;ratioP2;P2;SDS_P1;SDS_P2;PMS_P1;PMS_P2;Temp;Humidity;BMP_temperature;BMP_pressure;BME280_temperature;BME280_humidity;BME280_pressure;Samples;Min_cycle;Max_cycle;Signal;HPM_P1;HPM_P2
2022/04/24 00:01:30;;;;;;;7.90;5.10;;;;;;;11.09;62.70;100410.16;5064284;28;20028;-57
2022/04/24 00:03:56;;;;;;;6.68;5.00;;;;;;;11.01;63.40;100409.75;5077183;28;20351;-57
2022/04/24 00:06:21;;;;;;;8.15;4.97;;;;;;;11.01;62.77;100414.16;5059219;28;20450;-58
2022/04/24 00:08:46;;;;;;;7.97;5.30;;;;;;;10.92;63.80;100411.09;5080835;28;20115;-58
2022/04/24 00:11:12;;;;;;;8.80;5.68;;;;;;;10.86;63.80;100414.06;5062573;28;20257;-56
2022/04/24 00:13:40;;;;;;;9.68;5.50;;;;;;;10.84;63.84;100417.72;5063110;28;20056;-57
2022/04/24 00:16:08;;;;;;;8.07;5.38;;;;;;;10.77;64.39;100420.69;5062375;28;20430;-57
2022/04/24 00:18:35;;;;;;;7.80;5.35;;;;;;;10.74;64.70;100419.97;5080454;28;20024;-57
2022/04/24 00:21:01;;;;;;;7.63;5.40;;;;;;;10.70;64.56;100408.69;5080121;28;20046;-58
2022/04/24 00:23:27;;;;;;;7.60;5.70;;;;;;;10.65;65.38;100408.94;5080645;28;20510;-57
2022/04/24 00:25:53;;;;;;;8.45;6.18;;;;;;;10.65;65.28;100408.06;5079721;28;20040;-57
2022/04/24 00:28:18;;;;;;;7.85;5.95;;;;;;;10.60;65.81;100418.94;5079898;28;20032;-57
2022/04/24 00:30:44;;;;;;;8.75;6.18;;;;;;;10.59;65.93;100409.25;5080216;28;20028;-57
2022/04/24 00:33:09;;;;;;;7.97;6.22;;;;;;;10.59;66.01;100406.63;5080242;28;20047;-58
2022/04/24 00:35:34;;;;;;;8.57;6.13;;;;;;;10.61;65.75;100404.75;5079777;28;20063;-58
2022/04/24 00:38:00;;;;;;;11.68;6.10;;;;;;;10.57;66.71;100407.63;5080595;28;20063;-57
2022/04/24 00:40:25;;;;;;;10.30;5.75;;;;;;;10.53;66.43;100403.44;5080318;28;20114;-57
2022/04/24 00:42:50;;;;;;;11.38;6.38;;;;;;;10.48;66.41;100409.81;5080026;28;20038;-58
2022/04/24 00:45:16;;;;;;;8.15;6.05;;;;;;;10.49;66.81;100410.69;5079916;28;20086;-58
2022/04/24 00:47:41;;;;;;;8.13;6.03;;;;;;;10.47;66.59;100402.81;5061849;28;20119;-57
2022/04/24 00:50:07;;;;;;;8.27;5.95;;;;;;;10.48;66.84;100399.22;5080071;28;20107;-57
2022/04/24 00:52:33;;;;;;;8.63;6.20;;;;;;;10.45;66.94;100399.38;5079622;28;20028;-58
2022/04/24 00:55:00;;;;;;;7.85;5.90;;;;;;;10.40;67.10;100405.88;5080060;28;20040;-57
2022/04/24 00:57:25;;;;;;;8.30;5.80;;;;;;;10.37;67.01;100404.22;5080079;28;20410;-56
2022/04/24 00:59:50;;;;;;;12.45;6.20;;;;;;;10.35;66.95;100399.91;5079122;28;20482;-59
2022/04/24 01:02:16;;;;;;;8.35;6.00;;;;;;;10.36;66.76;100399.00;5061581;28;20031;-57
2022/04/24 01:04:41;;;;;;;10.38;5.95;;;;;;;10.32;67.01;100396.47;5044905;28;20047;-58
2022/04/24 01:07:07;;;;;;;8.10;5.97;;;;;;;10.33;67.17;100392.03;5079535;28;20509;-57
2022/04/24 01:09:34;;;;;;;8.43;6.20;;;;;;;10.29;67.47;100393.13;5061534;28;20036;-58
2022/04/24 01:11:59;;;;;;;8.55;6.20;;;;;;;10.21;67.87;100392.66;5061212;28;20020;-57
2022/04/24 01:14:26;;;;;;;10.65;6.45;;;;;;;10.18;67.93;100398.97;5080044;28;20390;-58
2022/04/24 01:16:52;;;;;;;9.20;6.43;;;;;;;10.12;68.77;100386.06;5079588;28;20025;-58
2022/04/24 01:19:18;;;;;;;8.90;6.28;;;;;;;10.07;69.03;100396.84;5078524;28;20187;-58
2022/04/24 01:21:45;;;;;;;9.18;7.15;;;;;;;10.06;69.31;100395.13;5078193;28;20058;-58
2022/04/24 01:24:12;;;;;;;10.65;7.00;;;;;;;10.05;69.27;100400.50;5061251;28;20069;-59
2022/04/24 01:26:38;;;;;;;9.20;6.75;;;;;;;10.02;69.95;100398.03;5079405;28;20067;-59
2022/04/24 01:29:04;;;;;;;8.93;6.65;;;;;;;9.97;71.05;100396.47;5060717;28;20060;-58
2022/04/24 01:31:30;;;;;;;9.77;6.75;;;;;;;9.95;70.60;100398.31;5078722;28;20478;-58
2022/04/24 01:33:56;;;;;;;9.65;6.80;;;;;;;9.90;71.36;100402.09;5060279;28;20098;-58
2022/04/24 01:36:21;;;;;;;9.23;6.93;;;;;;;9.86;71.97;100401.44;5060630;28;20642;-59
2022/04/24 01:38:47;;;;;;;10.80;6.97;;;;;;;9.80;72.25;100402.56;5078588;28;20086;-58
2022/04/24 01:41:12;;;;;;;10.07;7.43;;;;;;;9.76;73.01;100395.72;5060776;28;20032;-59
2022/04/24 01:43:38;;;;;;;10.07;7.43;;;;;;;9.68;73.78;100401.38;5078898;28;20039;-60
2022/04/24 01:46:05;;;;;;;12.13;8.05;;;;;;;9.63;74.44;100400.75;5060996;28;20032;-58
2022/04/24 01:48:34;;;;;;;11.45;7.93;;;;;;;9.65;74.58;100398.03;5078372;28;20028;-59
2022/04/24 01:51:04;;;;;;;11.93;8.60;;;;;;;9.67;75.08;100406.75;5078713;28;20036;-58
2022/04/24 01:53:31;;;;;;;11.85;8.57;;;;;;;9.68;74.65;100406.66;5079202;28;20119;-58
2022/04/24 01:55:57;;;;;;;12.88;8.85;;;;;;;9.66;75.46;100405.03;5078348;28;20468;-57
2022/04/24 01:58:24;;;;;;;12.07;8.85;;;;;;;9.59;76.25;100404.47;5079163;28;20514;-59
2022/04/24 02:00:50;;;;;;;11.63;9.05;;;;;;;9.57;76.18;100403.69;5060165;28;20093;-58
2022/04/24 02:03:15;;;;;;;13.82;9.00;;;;;;;9.55;76.92;100402.03;5077866;28;20586;-58
2022/04/24 02:05:40;;;;;;;13.70;8.95;;;;;;;9.54;77.03;100406.47;5065461;28;20032;-57
2022/04/24 02:08:06;;;;;;;13.70;9.70;;;;;;;9.55;77.45;100409.97;5061080;28;20028;-58
2022/04/24 02:10:32;;;;;;;12.55;9.05;;;;;;;9.56;76.93;100417.81;5059943;28;20093;-58
2022/04/24 02:12:58;;;;;;;13.35;9.63;;;;;;;9.50;77.45;100410.19;5043654;28;20028;-58
2022/04/24 02:15:23;;;;;;;12.85;9.70;;;;;;;9.49;77.79;100416.41;5077773;28;20044;-58
2022/04/24 02:17:48;;;;;;;13.80;10.32;;;;;;;9.44;78.10;100421.06;5059647;28;20529;-57
2022/04/24 02:20:14;;;;;;;13.65;9.73;;;;;;;9.40;79.08;100414.19;5064715;28;20074;-58
2022/04/24 02:22:39;;;;;;;13.65;9.95;;;;;;;9.37;79.64;100411.69;5078318;28;20040;-57
2022/04/24 02:25:05;;;;;;;14.45;10.65;;;;;;;9.31;79.82;100418.97;5059149;28;20404;-58
2022/04/24 02:27:30;;;;;;;16.15;10.70;;;;;;;9.30;80.13;100419.91;5077571;28;20548;-59
2022/04/24 02:29:56;;;;;;;13.65;10.57;;;;;;;9.26;80.52;100418.34;5058640;28;20033;-59
2022/04/24 02:32:21;;;;;;;15.43;10.85;;;;;;;9.23;81.00;100413.19;5076830;28;20050;-58
2022/04/24 02:34:47;;;;;;;14.15;10.30;;;;;;;9.25;80.99;100411.34;5058974;28;20139;-57
2022/04/24 02:37:12;;;;;;;16.75;11.00;;;;;;;9.23;81.09;100417.63;5064866;28;20032;-59
2022/04/24 02:39:38;;;;;;;16.25;10.93;;;;;;;9.22;80.89;100422.06;5077931;28;20031;-59
2022/04/24 02:42:03;;;;;;;17.42;10.95;;;;;;;9.23;81.04;100412.34;5077547;28;20041;-58
2022/04/24 02:44:29;;;;;;;14.32;10.43;;;;;;;9.22;81.15;100416.78;5077308;28;20131;-57
2022/04/24 02:46:54;;;;;;;15.15;10.60;;;;;;;9.20;81.58;100420.41;5059238;28;20059;-58
2022/04/24 02:49:19;;;;;;;16.77;11.07;;;;;;;9.15;81.86;100410.03;5078006;28;20119;-58
2022/04/24 02:51:45;;;;;;;17.25;10.82;;;;;;;9.13;81.78;100415.41;5059181;28;20052;-58
2022/04/24 02:54:11;;;;;;;15.35;10.88;;;;;;;9.15;82.19;100423.25;5077411;28;20027;-58
2022/04/24 02:56:36;;;;;;;13.18;9.77;;;;;;;9.16;82.16;100419.69;5064259;28;20364;-56
2022/04/24 02:59:02;;;;;;;13.82;10.68;;;;;;;9.14;82.50;100424.19;5060247;28;20040;-57
2022/04/24 03:01:28;;;;;;;19.00;10.30;;;;;;;9.16;82.13;100431.09;5077980;28;20049;-58
2022/04/24 03:03:54;;;;;;;14.70;10.35;;;;;;;9.16;82.11;100422.34;5076863;28;20097;-59
2022/04/24 03:06:19;;;;;;;13.48;9.70;;;;;;;9.21;81.98;100427.38;5077265;28;20040;-58
2022/04/24 03:08:46;;;;;;;13.48;10.10;;;;;;;9.17;81.45;100429.34;5077454;28;20114;-56
2022/04/24 03:11:12;;;;;;;14.32;10.05;;;;;;;9.13;82.06;100422.44;5076776;28;20337;-57
2022/04/24 03:13:37;;;;;;;14.63;9.52;;;;;;;9.08;82.39;100424.44;5076719;28;20534;-59
2022/04/24 03:16:03;;;;;;;14.30;10.18;;;;;;;9.07;82.30;100420.97;5059188;28;20040;-58
2022/04/24 03:18:28;;;;;;;12.85;9.30;;;;;;;9.04;82.07;100415.84;5076903;28;20031;-59
2022/04/24 03:20:54;;;;;;;13.80;9.68;;;;;;;8.97;82.75;100417.03;5077324;28;20044;-61
2022/04/24 03:23:19;;;;;;;14.10;9.60;;;;;;;8.95;82.18;100419.75;5064220;28;20029;-58
2022/04/24 03:25:45;;;;;;;13.68;9.07;;;;;;;8.99;82.64;100415.16;5076380;28;20024;-58
2022/04/24 03:28:10;;;;;;;13.90;9.88;;;;;;;8.96;82.40;100423.22;5076408;28;20034;-58
2022/04/24 03:30:36;;;;;;;13.82;8.95;;;;;;;8.94;82.51;100418.03;5077228;28;20062;-58
2022/04/24 03:33:01;;;;;;;12.90;8.95;;;;;;;8.94;82.52;100420.66;5076837;28;20436;-59
2022/04/24 03:35:27;;;;;;;13.48;9.18;;;;;;;8.91;82.51;100418.13;5058596;28;20152;-59
2022/04/24 03:37:52;;;;;;;16.75;9.05;;;;;;;8.85;82.32;100421.91;5076563;28;20032;-58
2022/04/24 03:40:19;;;;;;;13.70;9.18;;;;;;;8.82;83.21;100416.78;5064324;28;20135;-58
2022/04/24 03:42:46;;;;;;;16.33;9.48;;;;;;;8.78;82.85;100414.34;5076330;28;20051;-58
2022/04/24 03:45:12;;;;;;;15.10;9.20;;;;;;;8.71;83.67;100403.19;5076773;28;21119;-58
2022/04/24 03:47:38;;;;;;;13.68;9.05;;;;;;;8.69;83.27;100407.69;5076617;28;20036;-58
2022/04/24 03:50:04;;;;;;;14.57;9.25;;;;;;;8.68;83.37;100406.84;5077146;28;20040;-57
2022/04/24 03:52:30;;;;;;;13.75;8.65;;;;;;;8.67;83.68;100409.53;5059396;28;20036;-58
2022/04/24 03:54:56;;;;;;;17.02;9.82;;;;;;;8.61;83.67;100412.44;5076887;28;20493;-60
2022/04/24 03:57:21;;;;;;;14.32;9.20;;;;;;;8.57;84.25;100406.44;5076579;28;20108;-57
2022/04/24 03:59:47;;;;;;;12.43;8.73;;;;;;;8.57;84.17;100409.09;5077140;28;20052;-59
2022/04/24 04:02:12;;;;;;;12.25;9.10;;;;;;;8.58;84.13;100409.94;5057955;28;20039;-59
2022/04/24 04:04:38;;;;;;;13.60;9.38;;;;;;;8.51;84.04;100406.72;5076059;28;20094;-58
2022/04/24 04:07:04;;;;;;;13.27;9.00;;;;;;;8.47;84.60;100403.34;5076331;28;20051;-58
2022/04/24 04:09:30;;;;;;;13.77;9.23;;;;;;;8.46;84.29;100412.16;5074871;28;20028;-58
2022/04/24 04:11:56;;;;;;;11.98;9.18;;;;;;;8.47;84.69;100413.03;5076755;28;20055;-57
2022/04/24 04:14:24;;;;;;;14.55;8.90;;;;;;;8.45;84.64;100402.53;5076048;28;21870;-57
2022/04/24 04:16:50;;;;;;;12.02;8.98;;;;;;;8.40;84.63;100419.47;5076612;28;20032;-58
2022/04/24 04:19:16;;;;;;;12.70;8.77;;;;;;;8.32;85.23;100425.06;5075856;28;20093;-59
2022/04/24 04:21:43;;;;;;;13.52;9.02;;;;;;;8.28;85.51;100421.69;5076210;28;20032;-59
2022/04/24 04:24:09;;;;;;;13.93;9.00;;;;;;;8.29;85.60;100418.13;5076459;28;21828;-59
2022/04/24 04:26:34;;;;;;;13.70;8.38;;;;;;;8.28;85.49;100424.34;5058816;28;20039;-58
2022/04/24 04:29:00;;;;;;;11.00;7.95;;;;;;;8.28;86.03;100420.84;5075897;28;20032;-59
2022/04/24 04:31:25;;;;;;;13.52;8.93;;;;;;;8.27;85.61;100419.13;5076109;28;20115;-57
2022/04/24 04:33:51;;;;;;;12.68;8.40;;;;;;;8.27;85.54;100421.75;5076456;28;20575;-59
2022/04/24 04:36:16;;;;;;;12.02;8.48;;;;;;;8.28;85.38;100421.69;5075020;28;20031;-58
2022/04/24 04:38:42;;;;;;;13.07;8.77;;;;;;;8.26;85.58;100428.84;5074706;28;20024;-58
2022/04/24 04:41:07;;;;;;;12.77;8.60;;;;;;;8.22;85.64;100429.84;5076341;28;20032;-58
2022/04/24 04:43:32;;;;;;;12.02;8.45;;;;;;;8.19;86.12;100433.47;5058717;28;20137;-58
2022/04/24 04:45:58;;;;;;;12.30;8.52;;;;;;;8.19;86.22;100430.00;5076728;28;20042;-57
2022/04/24 04:48:23;;;;;;;11.80;8.20;;;;;;;8.16;86.15;100440.69;5076381;28;20059;-58
2022/04/24 04:50:49;;;;;;;13.18;9.25;;;;;;;8.16;86.46;100438.91;5074798;28;20036;-59
2022/04/24 04:53:15;;;;;;;12.55;9.23;;;;;;;8.15;86.13;100445.09;5076968;28;20086;-59
2022/04/24 04:55:41;;;;;;;12.80;8.82;;;;;;;8.15;86.14;100437.19;5080355;28;20037;-59
2022/04/24 04:58:06;;;;;;;11.82;8.27;;;;;;;8.19;85.89;100438.75;5079620;28;20039;-59
2022/04/24 05:00:31;;;;;;;13.07;8.13;;;;;;;8.24;85.53;100443.84;5079225;28;20051;-58
2022/04/24 05:02:57;;;;;;;10.18;7.68;;;;;;;8.27;85.73;100438.44;5079994;28;20107;-58
2022/04/24 05:05:22;;;;;;;10.57;7.40;;;;;;;8.27;85.21;100443.72;5061518;28;20028;-58
2022/04/24 05:07:47;;;;;;;11.38;8.20;;;;;;;8.26;85.66;100446.41;5061209;28;20549;-58
2022/04/24 05:10:13;;;;;;;10.63;7.65;;;;;;;8.31;85.32;100442.69;5079849;28;20040;-59
2022/04/24 05:12:38;;;;;;;9.00;7.38;;;;;;;8.35;85.31;100452.19;5044800;28;20027;-59
2022/04/24 05:15:09;;;;;;;11.82;7.43;;;;;;;8.39;84.90;100455.56;5077928;28;20051;-60
2022/04/24 05:17:36;;;;;;;10.27;7.28;;;;;;;8.45;84.19;100452.66;5061188;28;20972;-59
2022/04/24 05:20:03;;;;;;;11.20;7.20;;;;;;;8.54;83.44;100451.41;5061325;28;20024;-60
2022/04/24 05:22:28;;;;;;;10.77;7.28;;;;;;;8.60;82.94;100456.44;5078739;28;20036;-57
2022/04/24 05:24:53;;;;;;;10.60;7.45;;;;;;;8.65;82.88;100456.25;5066555;28;20034;-58
2022/04/24 05:27:22;;;;;;;9.93;7.18;;;;;;;8.69;82.87;100457.84;5060791;28;20127;-58
2022/04/24 05:29:47;;;;;;;13.50;7.53;;;;;;;8.72;82.10;100462.13;5079159;28;20075;-58
2022/04/24 05:32:13;;;;;;;11.35;7.57;;;;;;;8.78;81.88;100464.50;5078545;28;20546;-59
2022/04/24 05:34:39;;;;;;;12.88;7.07;;;;;;;8.82;81.05;100464.31;5079485;28;20127;-59
2022/04/24 05:37:05;;;;;;;10.27;7.30;;;;;;;8.84;81.25;100466.88;5078057;28;20483;-59
2022/04/24 05:39:30;;;;;;;12.90;7.15;;;;;;;8.93;80.57;100473.56;5078857;28;20081;-59
2022/04/24 05:41:56;;;;;;;12.30;6.63;;;;;;;8.91;80.70;100472.75;5079358;28;20060;-58
2022/04/24 05:44:21;;;;;;;10.40;7.40;;;;;;;8.96;80.41;100476.03;5065802;28;20753;-58
2022/04/24 05:46:47;;;;;;;11.07;6.70;;;;;;;9.04;79.53;100468.66;5060630;28;20146;-58
2022/04/24 05:49:12;;;;;;;10.23;6.80;;;;;;;9.07;79.73;100472.94;5060731;28;20032;-59
2022/04/24 05:51:37;;;;;;;10.13;6.97;;;;;;;9.07;79.73;100472.94;5065956;28;20047;-59
2022/04/24 05:54:03;;;;;;;11.07;6.70;;;;;;;9.12;78.66;100479.72;5060051;28;20065;-57
2022/04/24 05:56:28;;;;;;;9.25;6.53;;;;;;;9.16;79.13;100488.38;5078602;28;20028;-57
2022/04/24 05:58:53;;;;;;;13.15;6.82;;;;;;;9.18;79.24;100489.16;5078964;28;20433;-58
2022/04/24 06:01:19;;;;;;;13.63;6.85;;;;;;;9.23;79.09;100481.03;5060241;28;20096;-58
2022/04/24 06:03:44;;;;;;;9.60;6.50;;;;;;;9.28;78.29;100489.59;5059056;28;20120;-59
2022/04/24 06:06:10;;;;;;;13.88;6.95;;;;;;;9.30;78.05;100493.03;5078313;28;20604;-59
2022/04/24 06:08:36;;;;;;;10.13;6.85;;;;;;;9.31;77.36;100485.03;5060194;28;20024;-59
2022/04/24 06:11:02;;;;;;;9.23;6.50;;;;;;;9.38;76.94;100490.91;5061727;28;20031;-58
2022/04/24 06:13:28;;;;;;;9.38;6.45;;;;;;;9.44;77.47;100495.06;5065473;28;20032;-59
2022/04/24 06:15:57;;;;;;;8.48;6.18;;;;;;;9.49;76.42;100491.28;5077634;28;20558;-58
2022/04/24 06:18:26;;;;;;;9.32;6.65;;;;;;;9.53;76.28;100497.28;5077288;28;20044;-59
2022/04/24 06:20:52;;;;;;;10.82;6.50;;;;;;;9.54;76.36;100498.13;5065572;28;20086;-59
2022/04/24 06:23:18;;;;;;;10.15;6.80;;;;;;;9.54;76.32;100499.00;5078260;28;20478;-58
2022/04/24 06:25:43;;;;;;;10.05;6.53;;;;;;;9.57;76.83;100504.13;5077714;28;20051;-58
2022/04/24 06:28:09;;;;;;;10.75;6.40;;;;;;;9.68;76.07;100501.00;5044760;28;20101;-59
2022/04/24 06:30:40;;;;;;;9.68;6.47;;;;;;;9.73;75.93;100498.13;5078121;28;20036;-59
2022/04/24 06:33:12;;;;;;;8.95;6.28;;;;;;;9.79;75.64;100500.50;5077833;28;20048;-59
2022/04/24 06:35:38;;;;;;;9.77;6.40;;;;;;;9.81;74.04;100504.78;5077803;28;20055;-60
2022/04/24 06:38:04;;;;;;;8.45;6.18;;;;;;;9.84;74.54;100503.78;5078197;28;20031;-59
2022/04/24 06:40:31;;;;;;;9.75;6.57;;;;;;;9.86;75.49;100501.06;5078080;28;20402;-59
2022/04/24 06:43:00;;;;;;;10.00;6.63;;;;;;;9.91;75.76;100507.84;5076419;28;20449;-59
2022/04/24 06:45:33;;;;;;;12.60;6.72;;;;;;;10.04;73.95;100501.97;5078914;28;20028;-59
2022/04/24 06:48:06;;;;;;;9.18;6.32;;;;;;;10.07;73.87;100513.25;5061287;28;20039;-59
2022/04/24 06:50:33;;;;;;;9.35;6.03;;;;;;;10.11;74.64;100511.31;5078411;28;20483;-59
2022/04/24 06:53:08;;;;;;;8.55;6.28;;;;;;;10.20;73.20;100500.28;5078410;28;20043;-58
2022/04/24 06:55:37;;;;;;;9.13;6.63;;;;;;;10.25;73.00;100511.50;5063026;28;20487;-58
2022/04/24 06:58:04;;;;;;;8.93;6.45;;;;;;;10.32;72.85;100505.00;5078185;28;20582;-59
2022/04/24 07:00:32;;;;;;;11.27;6.38;;;;;;;10.39;72.28;100516.16;5078208;28;20057;-59
2022/04/24 07:02:58;;;;;;;11.10;6.28;;;;;;;10.44;71.76;100510.66;5060773;28;20074;-58
2022/04/24 07:05:25;;;;;;;10.18;6.15;;;;;;;10.43;71.83;100517.72;5078094;28;20387;-58
2022/04/24 07:07:51;;;;;;;8.40;6.25;;;;;;;10.51;72.29;100514.69;5090398;28;20039;-59
2022/04/24 07:10:17;;;;;;;9.07;6.03;;;;;;;10.62;71.91;100514.16;5100556;28;20028;-60
2022/04/24 07:12:52;;;;;;;10.80;6.80;;;;;;;10.71;71.83;100523.44;5089708;28;20031;-59
2022/04/24 07:15:20;;;;;;;9.45;6.25;;;;;;;10.78;71.91;100515.09;5084202;28;20399;-60
2022/04/24 07:17:46;;;;;;;8.23;5.80;;;;;;;10.86;70.51;100524.44;5066612;28;20039;-58
2022/04/24 07:20:13;;;;;;;9.35;6.25;;;;;;;10.88;70.42;100525.22;5063549;28;20510;-58
2022/04/24 07:22:50;;;;;;;8.48;6.35;;;;;;;11.00;70.31;100521.94;5090434;28;20028;-59
2022/04/24 07:25:18;;;;;;;8.20;6.07;;;;;;;11.12;68.79;100520.44;5092298;28;20154;-58
2022/04/24 07:27:44;;;;;;;9.30;6.22;;;;;;;11.18;69.47;100524.56;5091865;28;20027;-57
2022/04/24 07:30:14;;;;;;;9.63;6.22;;;;;;;11.25;70.48;100526.84;5102377;28;20040;-59
2022/04/24 07:32:40;;;;;;;10.07;6.30;;;;;;;11.31;68.07;100529.13;5112446;28;20106;-59
2022/04/24 07:35:08;;;;;;;9.18;6.00;;;;;;;11.32;67.76;100514.94;5112342;28;20387;-59
2022/04/24 07:37:34;;;;;;;8.40;6.00;;;;;;;11.32;68.38;100520.25;5112045;28;20460;-58
2022/04/24 07:39:59;;;;;;;9.82;6.03;;;;;;;11.36;67.98;100520.09;5110562;28;20034;-58
2022/04/24 07:42:24;;;;;;;11.15;6.38;;;;;;;11.46;67.72;100518.69;5110541;28;20503;-58
2022/04/24 07:44:51;;;;;;;12.23;6.50;;;;;;;11.47;67.09;100523.00;5090922;28;20054;-58
2022/04/24 07:47:16;;;;;;;10.30;6.38;;;;;;;11.60;68.09;100520.59;5070497;28;20028;-59
2022/04/24 07:49:42;;;;;;;10.60;6.47;;;;;;;11.70;66.20;100520.91;5091006;28;20084;-58
2022/04/24 07:52:07;;;;;;;9.02;6.07;;;;;;;11.69;66.18;100524.50;5070046;28;20040;-57
2022/04/24 07:54:33;;;;;;;8.60;6.45;;;;;;;11.74;66.02;100531.28;5078586;28;20088;-59
2022/04/24 07:56:58;;;;;;;8.95;6.10;;;;;;;11.81;66.22;100531.81;5091998;28;20028;-58
2022/04/24 07:59:32;;;;;;;7.90;5.82;;;;;;;11.89;65.25;100534.03;5091473;28;20055;-61
2022/04/24 08:01:57;;;;;;;9.60;6.32;;;;;;;11.94;64.16;100535.50;5090783;28;20035;-58
2022/04/24 08:04:22;;;;;;;10.50;6.18;;;;;;;11.96;64.92;100533.63;5091190;28;20024;-59
2022/04/24 08:06:48;;;;;;;9.40;6.60;;;;;;;12.03;64.52;100535.94;5084390;28;20027;-59
2022/04/24 08:09:14;;;;;;;9.65;6.13;;;;;;;12.16;64.78;100539.66;5074035;28;20056;-58
2022/04/24 08:11:39;;;;;;;10.88;6.45;;;;;;;12.24;64.34;100547.19;5077459;28;20070;-59
2022/04/24 08:14:04;;;;;;;8.63;6.03;;;;;;;12.40;64.00;100547.16;5111683;28;20123;-59
2022/04/24 08:16:30;;;;;;;9.80;6.32;;;;;;;12.48;64.07;100554.66;5111950;28;20036;-57
2022/04/24 08:18:59;;;;;;;10.48;6.30;;;;;;;12.56;64.07;100547.13;5110951;28;20024;-59
2022/04/24 08:21:24;;;;;;;8.70;6.38;;;;;;;12.62;64.02;100552.06;5086867;28;20067;-59
2022/04/24 08:23:50;;;;;;;11.77;6.65;;;;;;;12.69;63.92;100552.59;5090762;28;20070;-57
2022/04/24 08:26:15;;;;;;;9.13;6.32;;;;;;;12.89;63.92;100560.25;5091643;28;20105;-58
2022/04/24 08:28:40;;;;;;;10.13;6.28;;;;;;;12.95;63.20;100562.53;5093112;28;20067;-59
2022/04/24 08:31:06;;;;;;;8.48;6.10;;;;;;;13.05;62.33;100559.31;5075502;28;20028;-60
2022/04/24 08:33:31;;;;;;;9.20;6.03;;;;;;;12.84;63.87;100557.00;5095882;28;20036;-58
2022/04/24 08:35:58;;;;;;;8.00;5.72;;;;;;;12.88;63.82;100563.00;5068787;28;21032;-58
2022/04/24 08:38:23;;;;;;;10.50;6.60;;;;;;;13.05;62.29;100554.84;5070571;28;20070;-58
2022/04/24 08:40:50;;;;;;;9.48;6.22;;;;;;;13.06;61.83;100563.69;5065741;28;20036;-58
2022/04/24 08:43:16;;;;;;;12.27;6.38;;;;;;;13.22;61.77;100561.84;5055467;28;20494;-58
2022/04/24 08:45:42;;;;;;;9.20;6.18;;;;;;;13.43;61.64;100565.00;5094888;28;20032;-59
2022/04/24 08:48:08;;;;;;;8.93;6.50;;;;;;;13.52;61.37;100562.75;5095250;28;20081;-58
2022/04/24 08:50:33;;;;;;;10.43;6.30;;;;;;;13.62;60.35;100566.56;5076675;28;20502;-59
2022/04/24 08:52:59;;;;;;;10.23;6.18;;;;;;;13.85;59.89;100567.78;5094547;28;20032;-59
2022/04/24 08:55:30;;;;;;;10.52;6.05;;;;;;;14.11;58.89;100569.72;5076640;28;20142;-59
2022/04/24 08:57:56;;;;;;;9.57;6.57;;;;;;;14.25;59.06;100583.00;5070707;28;20035;-59
2022/04/24 09:00:22;;;;;;;10.32;6.50;;;;;;;14.49;58.24;100577.03;5079910;28;20603;-58
2022/04/24 09:02:48;;;;;;;10.48;6.40;;;;;;;14.69;55.76;100576.63;5061658;28;20107;-59
2022/04/24 09:05:14;;;;;;;9.70;6.45;;;;;;;14.98;54.81;100572.94;5080430;28;20036;-58
2022/04/24 09:07:43;;;;;;;8.45;5.60;;;;;;;15.54;51.93;100567.34;5087236;28;20066;-59
2022/04/24 09:10:12;;;;;;;9.98;6.25;;;;;;;15.98;51.45;100567.84;5093903;28;20028;-59
2022/04/24 09:12:39;;;;;;;9.20;6.10;;;;;;;16.30;50.74;100562.81;5071242;28;20025;-58
2022/04/24 09:15:06;;;;;;;8.45;6.10;;;;;;;17.02;49.66;100572.63;5093517;28;20028;-57
2022/04/24 09:17:35;;;;;;;8.60;6.03;;;;;;;17.61;47.63;100569.91;5094362;28;20387;-58
2022/04/24 09:20:14;;;;;;;8.57;6.43;;;;;;;18.84;44.66;100569.84;5069086;28;20040;-58
2022/04/24 09:22:39;;;;;;;9.70;6.82;;;;;;;18.72;44.62;100574.41;5059057;28;20044;-58
2022/04/24 09:25:06;;;;;;;7.93;6.10;;;;;;;19.16;43.27;100575.16;5093974;28;20064;-59
2022/04/24 09:27:35;;;;;;;7.57;5.85;;;;;;;19.58;41.77;100568.06;5074093;28;20432;-59
2022/04/24 09:30:08;;;;;;;10.10;6.32;;;;;;;19.85;40.74;100572.00;5093564;28;20032;-59
2022/04/24 09:32:51;;;;;;;10.70;6.18;;;;;;;20.25;40.58;100580.06;5076401;28;20032;-59
2022/04/24 09:35:33;;;;;;;7.60;6.18;;;;;;;19.85;39.70;100586.31;5089676;28;20098;-59
2022/04/24 09:38:10;;;;;;;9.00;5.88;;;;;;;20.48;38.70;100577.13;5091351;28;20046;-59
2022/04/24 09:40:44;;;;;;;8.07;6.43;;;;;;;19.77;39.86;100586.97;5073760;28;20043;-59
2022/04/24 09:43:11;;;;;;;9.02;7.13;;;;;;;19.15;41.59;100573.47;5094099;28;20115;-61
2022/04/24 09:45:37;;;;;;;9.40;6.13;;;;;;;20.23;38.79;100575.81;5087437;28;20024;-58
2022/04/24 09:48:11;;;;;;;8.40;5.70;;;;;;;20.71;37.59;100587.66;5089023;28;20063;-56
2022/04/24 09:50:38;;;;;;;8.77;5.82;;;;;;;21.20;36.55;100590.31;5091933;28;20028;-58
2022/04/24 09:53:04;;;;;;;9.77;6.20;;;;;;;21.54;36.03;100581.75;5086435;28;20075;-57
2022/04/24 09:55:29;;;;;;;8.85;6.32;;;;;;;20.89;37.28;100585.09;5083963;28;20036;-56
2022/04/24 09:57:55;;;;;;;7.57;6.07;;;;;;;21.18;36.36;100585.06;5038830;28;20024;-57
2022/04/24 10:00:21;;;;;;;8.43;6.20;;;;;;;21.13;36.65;100590.03;5089650;28;20036;-58
2022/04/24 10:02:50;;;;;;;10.50;5.90;;;;;;;21.75;36.68;100590.50;5075061;28;20032;-59
2022/04/24 10:05:16;;;;;;;10.43;5.50;;;;;;;22.41;33.23;100585.88;5096522;28;20017;-58
2022/04/24 10:07:42;;;;;;;7.57;5.82;;;;;;;21.98;33.55;100579.28;5081643;28;20024;-59
2022/04/24 10:10:09;;;;;;;8.40;5.60;;;;;;;21.34;37.00;100587.16;5092881;28;20395;-58
2022/04/24 10:12:34;;;;;;;9.05;5.85;;;;;;;21.71;35.34;100577.44;5088798;28;20075;-59
2022/04/24 10:15:03;;;;;;;10.48;6.10;;;;;;;21.23;35.48;100585.50;5059369;28;20063;-59
2022/04/24 10:17:50;;;;;;;9.38;6.30;;;;;;;21.49;35.23;100586.72;5111622;28;20023;-59
2022/04/24 10:20:45;;;;;;;8.75;5.80;;;;;;;21.83;36.15;100587.03;5093044;28;20510;-58
2022/04/24 10:23:11;;;;;;;10.48;6.28;;;;;;;21.96;33.96;100593.94;5076117;28;20503;-58
2022/04/24 10:25:40;;;;;;;7.15;5.65;;;;;;;21.57;36.51;100597.63;5092304;28;20027;-58
2022/04/24 10:28:15;;;;;;;7.35;6.28;;;;;;;22.30;34.34;100598.72;5074508;28;20024;-58
2022/04/24 10:30:41;;;;;;;10.45;6.68;;;;;;;22.32;34.25;100596.72;5092109;28;20036;-59
2022/04/24 10:33:23;;;;;;;10.82;6.30;;;;;;;21.45;35.32;100600.47;5073971;28;20028;-58
2022/04/24 10:35:53;;;;;;;9.10;6.43;;;;;;;22.13;33.82;100597.69;5092554;28;20032;-58
2022/04/24 10:38:22;;;;;;;16.23;6.17;;;;;;;21.76;34.12;100602.09;5074753;28;20085;-58
2022/04/24 10:41:02;;;;;;;8.30;5.88;;;;;;;22.34;33.37;100600.09;5092230;28;20622;-59
2022/04/24 10:43:38;;;;;;;6.85;6.00;;;;;;;21.73;35.06;100595.16;5090823;28;20032;-58
2022/04/24 10:46:18;;;;;;;8.00;5.93;;;;;;;21.66;32.50;100614.75;5091976;28;20032;-58
2022/04/24 10:48:47;;;;;;;7.30;5.50;;;;;;;21.60;33.59;100597.34;5098286;28;20032;-58
2022/04/24 10:51:24;;;;;;;9.23;6.18;;;;;;;21.67;35.55;100606.53;5070732;28;20174;-58
2022/04/24 10:54:01;;;;;;;13.63;6.80;;;;;;;21.67;35.45;100603.00;5091107;28;20024;-58
2022/04/24 10:56:32;;;;;;;7.78;5.93;;;;;;;21.64;34.92;100600.56;5092003;28;20039;-58
2022/04/24 10:59:10;;;;;;;;;;;;;;;21.88;35.49;100597.38;5093665;28;20035;-58
2022/04/24 11:01:37;;;;;;;10.25;6.10;;;;;;;21.67;35.21;100595.75;5091531;28;19918;-59
2022/04/24 11:04:07;;;;;;;9.85;6.00;;;;;;;22.30;33.32;100596.84;5079311;28;20093;-58
2022/04/24 11:06:33;;;;;;;9.38;6.15;;;;;;;21.61;34.24;100596.34;5043379;28;20036;-59
2022/04/24 11:09:12;;;;;;;9.30;5.38;;;;;;;21.59;35.55;100596.50;5086527;28;20024;-58
2022/04/24 11:11:50;;;;;;;10.27;6.25;;;;;;;22.09;32.77;100586.34;5085392;28;20020;-58
2022/04/24 11:14:20;;;;;;;8.93;5.82;;;;;;;22.39;32.40;100585.22;5091379;28;20546;-58
2022/04/24 11:16:50;;;;;;;9.02;6.57;;;;;;;22.24;33.45;100590.22;5091877;28;20035;-59
2022/04/24 11:19:36;;;;;;;10.50;7.25;;;;;;;21.80;35.31;100590.03;5085226;28;20407;-58
2022/04/24 11:22:06;;;;;;;8.00;6.28;;;;;;;22.24;32.60;100589.41;5091391;28;20032;-58
2022/04/24 11:24:33;;;;;;;9.07;6.57;;;;;;;22.42;34.00;100594.84;5083216;28;20046;-58